Time;durP1;ratioP1;P1;durP2;ratioP2;P2;SDS_P1;SDS_P2;PMS_P1;PMS_P2;Temp;Humidity;BMP_temperature;BMP_pressure;BME280_temperature;BME280_humidity;BME280_pressure;Samples;Min_cycle;Max_cycle;Signal;HPM_P1;HPM_P2
2022/01/19 00:01:59;;;;;;;23.47;11.07;;;;;;;-144.19;100.00;79050.34;6205517;23;20021;-87
2022/01/19 00:04:26;;;;;;;24.70;11.75;;;;;;;-144.19;100.00;79060.19;6182793;23;20021;-88
2022/01/19 00:06:52;;;;;;;25.52;11.68;;;;;;;-144.19;100.00;79068.06;6205664;23;20080;-87
2022/01/19 00:09:19;;;;;;;23.00;10.70;;;;;;;-144.19;100.00;79077.91;6182449;23;20029;-87
2022/01/19 00:11:45;;;;;;;22.93;10.17;;;;;;;-144.19;100.00;79099.59;6205593;23;20478;-87
2022/01/19 00:14:11;;;;;;;24.47;11.30;;;;;;;-144.19;100.00;79107.47;6181976;23;20021;-87
2022/01/19 00:16:38;;;;;;;17.73;10.40;;;;;;;-144.19;100.00;79119.28;6182747;23;20025;-87
2022/01/19 00:19:04;;;;;;;24.60;11.40;;;;;;;-144.19;100.00;79119.28;6182628;23;20021;-88
2022/01/19 00:21:32;;;;;;;19.00;10.53;;;;;;;-144.19;100.00;79121.25;6182592;23;20056;-87
2022/01/19 00:23:59;;;;;;;21.85;11.40;;;;;;;-144.19;100.00;79146.84;6155735;23;20029;-87
2022/01/19 00:26:25;;;;;;;25.67;11.83;;;;;;;-144.19;100.00;79162.63;6182603;23;20025;-87
2022/01/19 00:28:51;;;;;;;25.27;11.63;;;;;;;-144.19;100.00;79162.63;6156323;23;20025;-86
2022/01/19 00:31:18;;;;;;;20.77;11.20;;;;;;;-144.19;100.00;79166.56;6156264;23;20385;-86
2022/01/19 00:33:44;;;;;;;20.60;10.48;;;;;;;-144.19;100.00;79150.78;6155966;23;20025;-86
2022/01/19 00:36:11;;;;;;;23.13;11.07;;;;;;;-144.19;100.00;79156.72;6155521;23;20498;-86
2022/01/19 00:38:37;;;;;;;19.13;10.13;;;;;;;-144.19;100.00;79176.41;6156349;23;20482;-88
2022/01/19 00:41:03;;;;;;;15.83;10.00;;;;;;;-144.19;100.00;79168.53;6182239;23;20025;-88
2022/01/19 00:43:30;;;;;;;18.73;10.60;;;;;;;-144.19;100.00;79186.25;6182027;23;20025;-87
2022/01/19 00:45:57;;;;;;;18.52;9.10;;;;;;;-144.19;100.00;79253.22;6156058;23;20241;-86
2022/01/19 00:48:26;;;;;;;20.10;10.60;;;;;;;-144.19;100.00;79253.22;6182482;23;20025;-86
2022/01/19 00:50:54;;;;;;;21.98;9.65;;;;;;;-144.19;100.00;79229.59;6155535;23;20496;-86
2022/01/19 00:53:20;;;;;;;18.98;9.20;;;;;;;-144.19;100.00;79278.81;6181922;23;20344;-86
2022/01/19 00:55:47;;;;;;;19.43;10.43;;;;;;;-144.19;100.00;79288.69;6155753;23;20461;-86
2022/01/19 00:58:13;;;;;;;18.23;9.77;;;;;;;-144.19;100.00;79276.84;6155878;23;20255;-85
2022/01/19 01:00:40;;;;;;;18.90;10.40;;;;;;;-144.19;100.00;79257.16;6182223;23;20028;-86
2022/01/19 01:03:07;;;;;;;23.33;11.85;;;;;;;-144.19;100.00;79239.44;6155752;23;20028;-87
2022/01/19 01:05:34;;;;;;;30.92;12.52;;;;;;;-144.19;100.00;79249.28;6184109;23;20079;-86
2022/01/19 01:08:03;;;;;;;20.30;11.65;;;;;;;-144.19;100.00;79255.19;6157166;23;20020;-87
2022/01/19 01:10:31;;;;;;;22.10;12.07;;;;;;;-144.19;100.00;79253.22;6184251;23;20068;-86
2022/01/19 01:13:16;;;;;;;29.02;12.95;;;;;;;-144.19;100.00;79241.41;6183280;23;20051;-86
2022/01/19 01:18:30;;;;;;;23.70;12.35;;;;;;;-144.19;100.00;79245.34;6183451;23;20025;-86
2022/01/19 01:20:58;;;;;;;26.25;12.30;;;;;;;-144.19;100.00;79263.06;6157435;23;20354;-86
2022/01/19 01:23:28;;;;;;;22.73;11.57;;;;;;;-144.19;100.00;79263.06;6183142;23;20092;-86
2022/01/19 01:25:54;;;;;;;22.58;12.38;;;;;;;-144.19;100.00;79265.03;6184056;23;20157;-87
2022/01/19 01:28:21;;;;;;;27.48;12.07;;;;;;;-144.19;100.00;79276.84;6157187;23;20065;-86
2022/01/19 01:30:48;;;;;;;24.33;12.77;;;;;;;-144.19;100.00;79280.78;6157792;23;20021;-86
2022/01/19 01:33:14;;;;;;;20.33;11.23;;;;;;;-144.19;100.00;79265.03;6183501;23;20025;-87
2022/01/19 01:35:41;;;;;;;23.23;12.73;;;;;;;-144.19;100.00;79261.09;6157442;23;20032;-86
2022/01/19 01:38:08;;;;;;;23.23;11.63;;;;;;;-144.19;100.00;79288.69;6183433;23;20248;-87
2022/01/19 01:40:43;;;;;;;19.17;11.98;;;;;;;-144.19;100.00;79286.72;6158843;23;20097;-86
2022/01/19 01:43:09;;;;;;;30.20;14.02;;;;;;;-144.19;100.00;79255.19;6183390;23;20471;-85
2022/01/19 01:45:41;;;;;;;26.30;13.52;;;;;;;-144.19;100.00;79245.34;6183574;23;20027;-86
2022/01/19 01:48:20;;;;;;;23.83;11.57;;;;;;;-144.19;100.00;79249.28;6158032;23;20021;-85
2022/01/19 01:53:35;;;;;;;21.48;11.18;;;;;;;-144.19;100.00;79253.22;6183203;23;20027;-86
2022/01/19 01:56:07;;;;;;;21.92;11.85;;;;;;;-144.19;100.00;79255.19;6183015;23;20017;-87
2022/01/19 01:58:43;;;;;;;24.35;12.80;;;;;;;-144.19;100.00;79241.41;6156871;23;20473;-87
2022/01/19 02:01:09;;;;;;;20.10;11.63;;;;;;;-144.19;100.00;79263.06;6157509;23;20027;-87
2022/01/19 02:03:39;;;;;;;23.55;13.10;;;;;;;-144.19;100.00;79274.88;6156884;23;20025;-86
2022/01/19 02:09:03;;;;;;;22.13;12.00;;;;;;;-144.19;100.00;79292.63;6183026;23;20025;-86
2022/01/19 02:23:19;;;;;;;28.15;13.70;;;;;;;-144.19;100.00;79249.28;6182879;23;20027;-86
2022/01/19 02:25:57;;;;;;;27.63;13.57;;;;;;;-144.19;100.00;79221.72;6157151;23;20028;-88
2022/01/19 02:42:08;;;;;;;33.75;13.85;;;;;;;-144.19;100.00;79133.06;6183006;23;20361;-87
2022/01/19 02:49:49;;;;;;;27.88;14.65;;;;;;;-144.19;100.00;79119.28;6183412;23;20124;-86
2022/01/19 02:52:17;;;;;;;28.42;14.25;;;;;;;-144.19;100.00;79105.50;6156428;23;20028;-86
2022/01/19 02:54:44;;;;;;;28.05;15.27;;;;;;;-144.19;100.00;79093.69;6156817;23;20028;-86
2022/01/19 02:57:13;;;;;;;29.17;16.48;;;;;;;-144.19;100.00;79073.97;6182550;23;20021;-87
2022/01/19 03:10:36;;;;;;;30.98;17.35;;;;;;;-144.19;100.00;79062.16;6183037;23;20025;-86
2022/01/19 03:13:03;;;;;;;33.80;16.23;;;;;;;-144.19;100.00;79070.03;6182122;23;20025;-87
2022/01/19 03:15:29;;;;;;;31.52;16.33;;;;;;;-144.19;100.00;79062.16;6167627;23;20027;-87
2022/01/19 03:17:59;;;;;;;28.52;16.05;;;;;;;-144.19;100.00;79056.25;6181489;23;20597;-86
2022/01/19 03:20:27;;;;;;;34.35;17.92;;;;;;;-144.19;100.00;79036.56;6182900;23;20118;-86
2022/01/19 03:23:12;;;;;;;36.35;16.80;;;;;;;-144.19;100.00;79030.66;6182532;23;20021;-86
2022/01/19 03:25:39;;;;;;;34.80;16.98;;;;;;;-144.19;100.00;79020.81;6205936;23;20023;-86
2022/01/19 03:28:06;;;;;;;38.88;18.75;;;;;;;-144.19;100.00;79016.84;6206365;23;20051;-87
2022/01/19 03:30:33;;;;;;;39.40;18.85;;;;;;;-144.19;100.00;79001.09;6205193;23;20055;-86
2022/01/19 03:33:00;;;;;;;28.98;15.82;;;;;;;-144.19;100.00;78993.22;6182417;23;20027;-86
2022/01/19 03:35:27;;;;;;;37.53;19.10;;;;;;;-144.19;100.00;78989.28;6181802;23;20422;-86
2022/01/19 03:37:53;;;;;;;45.63;22.00;;;;;;;-144.19;100.00;78969.59;6206298;23;20029;-86
2022/01/19 03:40:20;;;;;;;41.00;21.77;;;;;;;-144.19;100.00;78965.66;6182273;23;20465;-87
2022/01/19 03:42:46;;;;;;;46.95;23.40;;;;;;;-144.19;100.00;78947.94;6180944;23;20025;-87
2022/01/19 03:45:13;;;;;;;51.53;24.83;;;;;;;-144.19;100.00;78922.31;6182406;23;20385;-86
2022/01/19 03:47:44;;;;;;;74.03;29.58;;;;;;;-144.19;100.00;78880.97;6182369;23;20027;-86
2022/01/19 03:50:10;;;;;;;62.63;30.05;;;;;;;-144.19;100.00;78845.50;6181127;23;20021;-86
2022/01/19 03:52:38;;;;;;;56.92;28.92;;;;;;;-144.19;100.00;78843.53;6180177;23;20494;-86
2022/01/19 03:55:05;;;;;;;56.72;29.20;;;;;;;-144.19;100.00;78843.53;6180956;23;20025;-87
2022/01/19 03:57:32;;;;;;;58.33;29.45;;;;;;;-144.19;100.00;78819.91;6182362;23;20025;-87
2022/01/19 03:59:58;;;;;;;48.38;25.42;;;;;;;-144.19;100.00;78812.03;6180824;23;20017;-87
2022/01/19 04:02:26;;;;;;;50.70;26.52;;;;;;;-144.19;100.00;78819.91;6181837;23;20036;-87
2022/01/19 04:05:03;;;;;;;52.13;25.45;;;;;;;-144.19;100.00;78804.16;6182374;23;20559;-87
2022/01/19 04:07:32;;;;;;;54.65;25.40;;;;;;;-144.19;100.00;78788.38;6180937;23;20037;-86
2022/01/19 04:09:58;;;;;;;52.70;26.77;;;;;;;-144.19;100.00;78780.50;6182192;23;20029;-86
2022/01/19 04:12:43;;;;;;;56.85;25.50;;;;;;;-144.19;100.00;78792.34;6205459;23;20392;-86
2022/01/19 04:15:15;;;;;;;48.78;25.20;;;;;;;-144.19;100.00;78784.44;6181795;23;20024;-87
2022/01/19 04:17:49;;;;;;;52.42;24.58;;;;;;;-144.19;100.00;78770.66;6182161;23;20123;-86
2022/01/19 04:20:16;;;;;;;48.55;24.08;;;;;;;-144.19;100.00;78780.50;6156450;23;20025;-86
2022/01/19 04:22:43;;;;;;;44.10;24.50;;;;;;;-144.19;100.00;78788.38;6156071;23;20021;-87
2022/01/19 04:25:09;;;;;;;50.83;24.23;;;;;;;-144.19;100.00;78772.63;6181324;23;20240;-86
2022/01/19 04:27:37;;;;;;;48.70;23.67;;;;;;;-144.19;100.00;78784.44;6182375;23;20116;-86
2022/01/19 04:30:11;;;;;;;43.58;21.50;;;;;;;-144.19;100.00;78788.38;6181842;23;20017;-86
2022/01/19 04:35:09;;;;;;;44.10;21.48;;;;;;;-144.19;100.00;78792.34;6181438;23;20484;-86
2022/01/19 05:01:52;;;;;;;59.58;28.20;;;;;;;-144.19;100.00;78794.31;6183588;23;20021;-85
2022/01/19 05:06:50;;;;;;;43.55;21.35;;;;;;;-144.19;100.00;78835.66;6183843;23;20470;-86
2022/01/19 05:09:55;;;;;;;46.55;22.10;;;;;;;-144.19;100.00;78810.06;6183754;23;20104;-86
2022/01/19 05:15:01;;;;;;;39.13;18.15;;;;;;;-144.19;100.00;78823.84;6183816;23;20021;-86
2022/01/19 05:17:28;;;;;;;45.53;21.83;;;;;;;-144.19;100.00;78863.22;6182726;23;20032;-84
2022/01/19 05:19:54;;;;;;;40.07;20.60;;;;;;;-144.19;100.00;78869.13;6187376;23;20099;-85
2022/01/19 05:22:20;;;;;;;38.80;20.47;;;;;;;-144.19;100.00;78851.41;6189636;23;20348;-84
2022/01/19 05:24:47;;;;;;;38.72;19.83;;;;;;;-144.19;100.00;78839.59;6190823;23;20021;-84
2022/01/19 05:27:13;;;;;;;41.35;19.67;;;;;;;-144.19;100.00;78837.63;6189931;23;20021;-84
2022/01/19 05:29:39;;;;;;;35.88;18.48;;;;;;;-144.19;100.00;78863.22;6190070;23;20021;-86
2022/01/19 05:32:07;;;;;;;41.67;19.55;;;;;;;-144.19;100.00;78845.50;6188530;23;20021;-84
2022/01/19 05:34:35;;;;;;;36.75;17.50;;;;;;;-144.19;100.00;78849.44;6188853;23;20025;-88
2022/01/19 05:37:02;;;;;;;41.70;20.60;;;;;;;-144.19;100.00;78882.94;6188957;23;20018;-86
2022/01/19 05:39:28;;;;;;;42.70;20.23;;;;;;;-144.19;100.00;78882.94;6188278;23;20031;-84
2022/01/19 05:41:55;;;;;;;37.65;17.88;;;;;;;-144.19;100.00;78886.88;6187855;23;20039;-84
2022/01/19 05:44:21;;;;;;;40.73;20.23;;;;;;;-144.19;100.00;78871.13;6187071;23;20021;-85
2022/01/19 05:46:48;;;;;;;42.15;17.48;;;;;;;-144.19;100.00;78875.06;6186545;23;20044;-85
2022/01/19 05:49:14;;;;;;;33.93;16.47;;;;;;;-144.19;100.00;78863.22;6189399;23;20035;-86
2022/01/19 05:51:41;;;;;;;39.08;18.70;;;;;;;-144.19;100.00;78859.28;6189472;23;20927;-85
2022/01/19 05:54:07;;;;;;;39.65;17.88;;;;;;;-144.19;100.00;78880.97;6189194;23;20106;-85
2022/01/19 05:56:33;;;;;;;43.47;20.23;;;;;;;-144.19;100.00;78871.13;6189944;23;20021;-85
2022/01/19 05:59:00;;;;;;;39.90;19.13;;;;;;;-144.19;100.00;78877.03;6189920;23;20060;-88
2022/01/19 06:01:27;;;;;;;44.38;19.75;;;;;;;-144.19;100.00;78880.97;6187251;23;20279;-85
2022/01/19 06:03:53;;;;;;;36.50;18.13;;;;;;;-144.19;100.00;78920.34;6185804;23;20079;-84
2022/01/19 06:06:20;;;;;;;44.40;20.20;;;;;;;-144.19;100.00;78873.09;6186455;23;20017;-86
2022/01/19 06:08:58;;;;;;;37.43;18.23;;;;;;;-144.19;100.00;78849.44;6187850;23;20063;-87
2022/01/19 06:11:25;;;;;;;39.22;17.92;;;;;;;-144.19;100.00;78875.06;6185214;23;20251;-84
2022/01/19 06:13:51;;;;;;;36.20;17.73;;;;;;;-144.19;100.00;78875.06;6185652;23;20035;-85
2022/01/19 06:16:18;;;;;;;38.22;18.27;;;;;;;-144.19;100.00;78886.88;6187563;23;20021;-86
2022/01/19 06:18:44;;;;;;;39.70;17.10;;;;;;;-144.19;100.00;78888.84;6187051;23;20025;-85
2022/01/19 06:21:12;;;;;;;35.33;16.88;;;;;;;-144.19;100.00;78880.97;6196783;23;20059;-84
2022/01/19 06:23:39;;;;;;;32.92;16.00;;;;;;;-144.19;100.00;78890.81;6192337;23;20048;-84
2022/01/19 06:26:06;;;;;;;29.45;14.68;;;;;;;-144.19;100.00;78863.22;6187585;23;20017;-85
2022/01/19 06:28:32;;;;;;;29.30;14.40;;;;;;;-144.19;100.00;78859.28;6188466;23;20025;-85
2022/01/19 06:30:59;;;;;;;33.17;17.17;;;;;;;-144.19;100.00;78861.25;6189098;23;20454;-85
2022/01/19 06:33:25;;;;;;;31.73;16.23;;;;;;;-144.19;100.00;78853.38;6187655;23;20105;-84
2022/01/19 06:35:53;;;;;;;36.93;18.07;;;;;;;-144.19;100.00;78823.84;6186428;23;20504;-84
2022/01/19 06:38:21;;;;;;;;;;;;;;;-144.19;100.00;78853.38;6185026;23;20245;-86
2022/01/19 06:40:47;;;;;;;39.10;18.30;;;;;;;-144.19;100.00;78845.50;6189136;23;19960;-87
2022/01/19 06:43:14;;;;;;;39.27;18.90;;;;;;;-144.19;100.00;78843.53;6186602;23;20024;-85
2022/01/19 06:45:41;;;;;;;41.03;18.10;;;;;;;-144.19;100.00;78831.72;6198201;23;20307;-85
2022/01/19 06:48:11;;;;;;;36.75;21.08;;;;;;;-144.19;100.00;78812.03;6205809;23;20267;-86
2022/01/19 06:50:39;;;;;;;35.05;19.38;;;;;;;-144.19;100.00;78812.03;6206213;23;20040;-85
2022/01/19 06:53:16;;;;;;;51.30;23.95;;;;;;;-144.19;100.00;78798.25;6205598;23;20024;-86
2022/01/19 06:55:47;;;;;;;38.83;21.15;;;;;;;-144.19;100.00;78812.03;6204093;23;20322;-86
2022/01/19 06:58:17;;;;;;;40.08;21.70;;;;;;;-144.19;100.00;78817.94;6204748;23;20025;-87
2022/01/19 07:00:48;;;;;;;31.80;18.50;;;;;;;-144.19;100.00;78823.84;6204264;23;20024;-86
2022/01/19 07:03:15;;;;;;;35.83;19.27;;;;;;;-144.19;100.00;78819.91;6205183;23;20033;-87
2022/01/19 07:05:42;;;;;;;35.22;19.90;;;;;;;-144.19;100.00;78800.22;6205004;23;20017;-86
2022/01/19 07:08:09;;;;;;;39.38;22.55;;;;;;;-144.19;100.00;78804.16;6206349;23;20028;-86
2022/01/19 07:10:37;;;;;;;36.03;21.35;;;;;;;-144.19;100.00;78776.56;6205688;23;20036;-87
2022/01/19 07:13:06;;;;;;;36.15;22.75;;;;;;;-144.19;100.00;78776.56;6205839;23;20060;-86
2022/01/19 07:15:45;;;;;;;43.63;23.50;;;;;;;-144.19;100.00;78756.88;6205089;23;20025;-87
2022/01/19 07:18:46;;;;;;;34.75;20.30;;;;;;;-144.19;100.00;78745.06;6205653;23;20032;-85
2022/01/19 07:21:43;;;;;;;31.33;20.35;;;;;;;-144.19;100.00;78735.22;6204144;23;20035;-84
2022/01/19 07:24:12;;;;;;;36.80;20.85;;;;;;;-144.19;100.00;78733.25;6205540;23;20021;-85
2022/01/19 07:26:39;;;;;;;36.15;22.45;;;;;;;-144.19;100.00;78745.06;6206433;23;20021;-84
2022/01/19 07:29:13;;;;;;;38.53;22.58;;;;;;;-144.19;100.00;78745.06;6206081;23;20025;-85
2022/01/19 07:31:44;;;;;;;33.08;20.95;;;;;;;-144.19;100.00;78717.50;6206890;23;20017;-84
2022/01/19 07:34:39;;;;;;;28.65;20.50;;;;;;;-144.19;100.00;78719.47;6206704;23;20036;-85
2022/01/19 07:37:07;;;;;;;33.53;20.85;;;;;;;-144.19;100.00;78717.50;6205862;23;20025;-85
2022/01/19 07:39:37;;;;;;;28.75;20.10;;;;;;;-144.19;100.00;78705.66;6205700;23;20032;-84
2022/01/19 07:42:10;;;;;;;31.13;20.73;;;;;;;-144.19;100.00;78721.44;6204848;23;20021;-84
2022/01/19 07:45:07;;;;;;;26.23;18.73;;;;;;;-144.19;100.00;78699.75;6205128;23;20025;-84
2022/01/19 07:48:03;;;;;;;34.88;23.95;;;;;;;-144.19;100.00;78693.84;6205135;23;20044;-84
2022/01/19 07:50:56;;;;;;;30.67;22.17;;;;;;;-144.19;100.00;78697.78;6204919;23;20081;-85
2022/01/19 07:53:23;;;;;;;41.25;24.70;;;;;;;-144.19;100.00;78682.03;6205701;23;20071;-84
2022/01/19 07:55:54;;;;;;;;;;;;;;;-144.19;100.00;78662.34;6230625;23;20021;-84
2022/01/19 07:58:22;;;;;;;36.40;23.92;;;;;;;-144.19;100.00;78654.47;6205758;23;19916;-85
2022/01/19 08:00:52;;;;;;;37.13;24.52;;;;;;;-144.19;100.00;78654.47;6206264;23;20049;-81
2022/01/19 08:03:54;;;;;;;31.92;22.60;;;;;;;-144.19;100.00;78666.28;6201249;23;20056;-85
2022/01/19 08:06:21;;;;;;;;;;;;;;;-144.19;100.00;78660.38;6205773;23;20035;-85
2022/01/19 08:09:03;;;;;;;34.92;23.35;;;;;;;-144.19;100.00;78654.47;6190300;23;19916;-83
2022/01/19 08:11:31;;;;;;;40.95;25.90;;;;;;;-144.19;100.00;78662.34;6205090;23;20031;-85
2022/01/19 08:14:07;;;;;;;40.42;26.75;;;;;;;-144.19;100.00;78640.69;6204379;23;20035;-83
2022/01/19 08:16:34;;;;;;;39.72;26.52;;;;;;;-144.19;100.00;78634.78;6205399;23;20022;-84
2022/01/19 08:19:02;;;;;;;;;;;;;;;-144.19;100.00;78630.84;6205472;23;20017;-83
2022/01/19 08:21:55;;;;;;;43.10;26.40;;;;;;;-144.19;100.00;78601.28;6204590;23;19916;-83
2022/01/19 08:24:25;;;;;;;46.85;28.60;;;;;;;-144.19;100.00;78603.25;6206863;23;20021;-84
2022/01/19 08:26:55;;;;;;;47.65;30.25;;;;;;;-144.19;100.00;78609.16;6205606;23;20005;-85
2022/01/19 08:29:25;;;;;;;53.78;30.70;;;;;;;-144.19;100.00;78593.41;6205105;23;20033;-84
2022/01/19 08:31:58;;;;;;;46.45;29.33;;;;;;;-144.19;100.00;78591.44;6205204;23;20043;-89
2022/01/19 08:34:49;;;;;;;45.55;27.02;;;;;;;-144.19;100.00;78593.41;6205452;23;20025;-84
2022/01/19 08:37:19;;;;;;;47.67;28.48;;;;;;;-144.19;100.00;78609.16;6205263;23;20104;-87
2022/01/19 08:39:52;;;;;;;54.60;29.55;;;;;;;-144.19;100.00;78591.44;6206390;23;20035;-85
2022/01/19 08:42:22;;;;;;;48.33;28.98;;;;;;;-144.19;100.00;78565.84;6205013;23;20021;-85
2022/01/19 08:44:55;;;;;;;46.88;28.45;;;;;;;-144.19;100.00;78587.50;6206117;23;20021;-85
2022/01/19 08:47:23;;;;;;;51.53;30.08;;;;;;;-144.19;100.00;78581.59;6204023;23;20068;-85
2022/01/19 08:49:56;;;;;;;54.03;29.33;;;;;;;-144.19;100.00;78556.00;6203713;23;20029;-85
2022/01/19 08:52:35;;;;;;;43.90;27.15;;;;;;;-144.19;100.00;78559.94;6199580;23;20021;-85
2022/01/19 08:55:05;;;;;;;47.75;28.13;;;;;;;-144.19;100.00;78571.75;6203186;23;20025;-85
2022/01/19 08:57:38;;;;;;;44.00;26.10;;;;;;;-144.19;100.00;78548.13;6204713;23;20028;-85
2022/01/19 09:00:12;;;;;;;49.30;27.08;;;;;;;-144.19;100.00;78540.25;6205946;23;20027;-85
2022/01/19 09:02:45;;;;;;;50.55;30.65;;;;;;;-144.19;100.00;78530.41;6204858;23;20025;-86
2022/01/19 09:05:18;;;;;;;39.50;24.00;;;;;;;-144.19;100.00;78508.72;6206435;23;20028;-86
2022/01/19 09:07:46;;;;;;;46.58;27.23;;;;;;;-144.19;100.00;78502.81;6204921;23;20461;-85
2022/01/19 09:10:47;;;;;;;;;;;;;;;;;;;;;
2022/01/19 09:13:39;;;;;;;44.85;24.90;;;;;;;-144.19;100.00;78498.88;6205694;23;20027;-84
2022/01/19 09:16:09;;;;;;;46.50;23.92;;;;;;;-144.19;100.00;78485.09;6204067;23;20036;-85
2022/01/19 09:18:55;;;;;;;49.05;25.10;;;;;;;-144.19;100.00;78485.09;6205075;23;20024;-84
2022/01/19 09:21:25;;;;;;;44.75;25.95;;;;;;;-144.19;100.00;78465.41;6205235;23;20049;-85
2022/01/19 09:23:52;;;;;;;40.78;22.38;;;;;;;-144.19;100.00;78471.31;6204282;23;20055;-85
2022/01/19 09:26:21;;;;;;;;;;;;;;;-144.19;100.00;78473.28;6206515;23;20021;-84
2022/01/19 09:28:49;;;;;;;47.50;24.38;;;;;;;-144.19;100.00;78469.34;6206931;23;19920;-85
2022/01/19 09:31:35;;;;;;;41.97;24.48;;;;;;;-144.19;100.00;78453.59;6206809;23;20021;-85
2022/01/19 09:34:14;;;;;;;43.45;23.42;;;;;;;-144.19;100.00;78447.69;6205780;23;20033;-85
2022/01/19 09:36:48;;;;;;;35.92;20.65;;;;;;;-144.19;100.00;78435.88;6205901;23;20017;-82
2022/01/19 09:39:20;;;;;;;41.15;22.80;;;;;;;-144.19;100.00;78433.91;6205338;23;20036;-85
2022/01/19 09:41:49;;;;;;;36.17;22.60;;;;;;;-144.19;100.00;78426.03;6205243;23;20040;-85
2022/01/19 09:44:21;;;;;;;44.28;24.55;;;;;;;-144.19;100.00;78416.19;6197426;23;20033;-82
2022/01/19 09:46:49;;;;;;;39.17;22.55;;;;;;;-144.19;100.00;78406.31;6184565;23;20060;-85
2022/01/19 09:49:17;;;;;;;42.83;24.80;;;;;;;-144.19;100.00;78404.34;6185279;23;20469;-85
2022/01/19 09:51:46;;;;;;;47.25;24.30;;;;;;;-144.19;100.00;78431.94;6184944;23;20081;-84
2022/01/19 09:54:25;;;;;;;36.85;22.48;;;;;;;-144.19;100.00;78429.97;6185284;23;20029;-84
2022/01/19 09:56:52;;;;;;;51.92;28.80;;;;;;;-144.19;100.00;78429.97;6185083;23;20614;-83
2022/01/19 09:59:19;;;;;;;46.15;26.27;;;;;;;-144.19;100.00;78428.00;6184792;23;20462;-83
2022/01/19 10:01:58;;;;;;;48.00;27.70;;;;;;;-144.19;100.00;78424.06;6185421;23;20025;-83
2022/01/19 10:04:30;;;;;;;48.38;27.45;;;;;;;-144.19;100.00;78414.19;6185137;23;20087;-83
2022/01/19 10:07:22;;;;;;;42.67;25.38;;;;;;;-144.19;100.00;78404.34;6184992;23;20450;-85
2022/01/19 10:09:52;;;;;;;46.15;26.63;;;;;;;-144.19;100.00;78418.13;6183221;23;20021;-87
2022/01/19 10:18:21;;;;;;;50.80;28.98;;;;;;;-144.19;100.00;78398.44;6183414;23;20025;-84
2022/01/19 10:21:04;;;;;;;62.83;28.77;;;;;;;-144.19;100.00;78390.56;6184826;23;20025;-85
2022/01/19 10:23:44;;;;;;;45.58;28.00;;;;;;;-144.19;100.00;78398.44;6182847;23;20080;-86
2022/01/19 10:26:14;;;;;;;45.50;27.83;;;;;;;-144.19;100.00;78382.69;6183242;23;20021;-83
2022/01/19 10:29:04;;;;;;;51.97;27.17;;;;;;;-144.19;100.00;78382.69;6182888;23;20022;-85
2022/01/19 10:31:33;;;;;;;46.15;26.13;;;;;;;-144.19;100.00;78359.06;6184209;23;20021;-83
2022/01/19 10:34:19;;;;;;;48.35;26.63;;;;;;;-144.19;100.00;78361.03;6182281;23;20025;-83
2022/01/19 10:36:49;;;;;;;46.90;25.77;;;;;;;-144.19;100.00;78376.78;6184070;23;20421;-84
2022/01/19 10:39:18;;;;;;;43.50;25.05;;;;;;;-144.19;100.00;78366.94;6182533;23;20021;-83
2022/01/19 10:42:06;;;;;;;47.13;26.60;;;;;;;-144.19;100.00;78382.69;6182469;23;20536;-84
2022/01/19 10:44:32;;;;;;;46.63;25.63;;;;;;;-144.19;100.00;78396.47;6182344;23;20043;-85
2022/01/19 10:47:37;;;;;;;40.10;24.83;;;;;;;-144.19;100.00;78382.69;6186920;23;20244;-84
2022/01/19 10:50:05;;;;;;;46.03;26.45;;;;;;;-144.19;100.00;78372.84;6184684;23;20025;-86
2022/01/19 10:52:41;;;;;;;44.75;24.50;;;;;;;-144.19;100.00;78341.34;6182257;23;20028;-85
2022/01/19 10:55:23;;;;;;;47.20;27.73;;;;;;;-144.19;100.00;78355.13;6183328;23;20021;-84
2022/01/19 10:57:53;;;;;;;42.38;24.85;;;;;;;-144.19;100.00;78339.38;6185082;23;20027;-85
2022/01/19 11:00:31;;;;;;;46.38;26.35;;;;;;;-144.19;100.00;78337.41;6183335;23;20020;-83
2022/01/19 11:03:17;;;;;;;43.40;26.02;;;;;;;-144.19;100.00;78343.31;6182901;23;20031;-83
2022/01/19 11:05:51;;;;;;;47.63;26.52;;;;;;;-144.19;100.00;78331.50;6182484;23;20031;-82
2022/01/19 11:08:20;;;;;;;46.45;26.95;;;;;;;-144.19;100.00;78333.47;6183545;23;20017;-85
2022/01/19 11:10:49;;;;;;;48.10;25.60;;;;;;;-144.19;100.00;78345.28;6183635;23;20582;-83
2022/01/19 11:13:27;;;;;;;46.67;25.38;;;;;;;-144.19;100.00;78315.75;6182436;23;20028;-84
2022/01/19 11:15:55;;;;;;;47.80;26.20;;;;;;;-144.19;100.00;78311.81;6182735;23;20033;-86
2022/01/19 11:18:25;;;;;;;47.75;26.38;;;;;;;-144.19;100.00;78303.94;6183094;23;20433;-85
2022/01/19 11:20:53;;;;;;;43.10;24.67;;;;;;;-144.19;100.00;78294.06;6182479;23;20063;-85
2022/01/19 11:23:33;;;;;;;40.35;23.75;;;;;;;-144.19;100.00;78313.78;6183040;23;20077;-83
2022/01/19 11:26:04;;;;;;;47.42;25.98;;;;;;;-144.19;100.00;78294.06;6182239;23;20021;-85
2022/01/19 11:28:42;;;;;;;42.67;23.83;;;;;;;-144.19;100.00;78288.16;6183418;23;20017;-84
2022/01/19 11:31:14;;;;;;;42.95;23.52;;;;;;;-144.19;100.00;78299.97;6182507;23;20466;-84
2022/01/19 11:33:43;;;;;;;37.08;22.30;;;;;;;-144.19;100.00;78307.88;6181801;23;20029;-83
2022/01/19 11:36:21;;;;;;;42.53;21.42;;;;;;;-144.19;100.00;78307.88;6182148;23;20021;-85
2022/01/19 11:38:50;;;;;;;40.60;22.75;;;;;;;-144.19;100.00;78311.81;6182994;23;20484;-84
2022/01/19 11:41:16;;;;;;;47.42;25.42;;;;;;;-144.19;100.00;78296.03;6181890;23;20027;-83
2022/01/19 11:43:54;;;;;;;36.78;23.10;;;;;;;-144.19;100.00;78278.31;6180977;23;20043;-84
2022/01/19 11:46:31;;;;;;;40.72;23.20;;;;;;;-144.19;100.00;78276.34;6182117;23;20027;-84
2022/01/19 11:49:00;;;;;;;42.10;22.73;;;;;;;-144.19;100.00;78280.28;6183480;23;20025;-84
2022/01/19 11:51:42;;;;;;;46.30;26.05;;;;;;;-144.19;100.00;78280.28;6183239;23;20032;-86
2022/01/19 11:54:27;;;;;;;37.38;20.80;;;;;;;-144.19;100.00;78254.69;6182765;23;20096;-84
2022/01/19 11:57:02;;;;;;;37.78;21.17;;;;;;;-144.19;100.00;78260.59;6182955;23;20465;-84
2022/01/19 11:59:47;;;;;;;40.17;22.60;;;;;;;-144.19;100.00;78272.41;6184004;23;20024;-83
2022/01/19 12:02:23;;;;;;;41.70;22.48;;;;;;;-144.19;100.00;78258.63;6183985;23;20024;-84
2022/01/19 12:05:10;;;;;;;42.25;21.63;;;;;;;-144.19;100.00;78236.97;6183239;23;20369;-83
2022/01/19 12:07:42;;;;;;;41.65;22.15;;;;;;;-144.19;100.00;78240.91;6182826;23;20028;-83
2022/01/19 12:10:40;;;;;;;44.45;22.50;;;;;;;-144.19;100.00;78258.63;6181580;23;20373;-83
2022/01/19 12:13:40;;;;;;;39.92;22.27;;;;;;;-144.19;100.00;78248.78;6184705;23;20031;-84
2022/01/19 12:16:34;;;;;;;44.03;23.40;;;;;;;-144.19;100.00;78252.72;6186346;23;20029;-85
2022/01/19 12:19:14;;;;;;;46.13;24.58;;;;;;;-144.19;100.00;78244.84;6183754;23;20017;-85
2022/01/19 12:21:50;;;;;;;45.35;23.85;;;;;;;-144.19;100.00;78233.03;6184156;23;20027;-83
2022/01/19 12:24:44;;;;;;;36.45;20.85;;;;;;;-144.19;100.00;78244.84;6184572;23;20025;-84
2022/01/19 12:27:14;;;;;;;36.40;19.92;;;;;;;-144.19;100.00;78240.91;6183665;23;20100;-86
2022/01/19 12:29:42;;;;;;;40.10;22.55;;;;;;;-144.19;100.00;78221.22;6185340;23;20021;-87
2022/01/19 12:32:17;;;;;;;41.63;22.55;;;;;;;-144.19;100.00;78221.22;6183767;23;20024;-89
2022/01/19 12:34:52;;;;;;;41.10;21.48;;;;;;;-144.19;100.00;78207.44;6183593;23;20025;-87
2022/01/19 12:37:38;;;;;;;46.83;21.83;;;;;;;-144.19;100.00;78189.72;6184802;23;20029;-87
2022/01/19 12:40:32;;;;;;;30.58;18.83;;;;;;;-144.19;100.00;78219.25;6184070;23;20021;-87
2022/01/19 12:43:01;;;;;;;40.60;22.15;;;;;;;-144.19;100.00;78219.25;6184702;23;20032;-86
2022/01/19 12:45:31;;;;;;;40.35;23.70;;;;;;;-144.19;100.00;78209.41;6201695;23;20049;-85
2022/01/19 12:48:05;;;;;;;34.80;20.85;;;;;;;-144.19;100.00;78201.53;6204216;23;20021;-86